createdAt,value
2019-03-28T00:01:23.390Z,7.58
2019-03-28T00:04:12.277Z,9.19
2019-03-28T00:07:01.096Z,9.06
2019-03-28T00:09:49.883Z,9.19
2019-03-28T00:12:38.704Z,9.09
2019-03-28T00:15:27.496Z,9.17
2019-03-28T00:18:16.320Z,9.17
2019-03-28T00:21:24.203Z,8.32
2019-03-28T00:24:32.040Z,9.21
2019-03-28T00:27:21.224Z,9.31
2019-03-28T00:33:05.647Z,8.71
2019-03-28T00:35:47.267Z,7.81
2019-03-28T00:38:36.095Z,9.29
2019-03-28T00:41:24.919Z,9.22
2019-03-28T00:44:13.710Z,9.24
2019-03-28T00:47:02.529Z,9.22
2019-03-28T00:49:51.329Z,9.00
2019-03-28T00:52:40.147Z,8.24
2019-03-28T00:55:28.970Z,8.77
2019-03-28T00:58:17.744Z,7.49
2019-03-28T01:01:06.620Z,9.06
2019-03-28T01:06:49.624Z,9.06
2019-03-28T01:09:38.418Z,7.66
2019-03-28T01:12:27.587Z,9.11
2019-03-28T01:15:16.362Z,9.11
2019-03-28T01:18:05.185Z,7.70
2019-03-28T01:20:54.270Z,7.77
2019-03-28T01:23:43.093Z,9.24
2019-03-28T01:26:31.894Z,9.19
2019-03-28T01:29:20.746Z,9.16
2019-03-28T01:32:09.546Z,7.56
2019-03-28T01:34:58.384Z,9.11
2019-03-28T01:37:39.794Z,9.06
2019-03-28T01:40:28.603Z,8.59
2019-03-28T01:43:17.411Z,9.03
2019-03-28T01:46:06.526Z,9.06
2019-03-28T01:48:55.329Z,8.99
2019-03-28T01:51:44.139Z,8.55
2019-03-28T01:54:32.950Z,9.12
2019-03-28T01:57:21.750Z,9.06
2019-03-28T02:00:31.478Z,9.11
2019-03-28T02:03:20.278Z,8.69
2019-03-28T02:06:09.267Z,7.70
2019-03-28T02:08:59.615Z,8.88
2019-03-28T02:11:48.435Z,8.98
2019-03-28T02:14:37.232Z,9.10
2019-03-28T02:17:26.050Z,9.09
2019-03-28T02:20:15.004Z,8.98
2019-03-28T02:23:03.830Z,8.99
2019-03-28T02:25:52.633Z,9.09
2019-03-28T02:28:41.465Z,9.07
2019-03-28T02:31:30.265Z,9.17
2019-03-28T02:34:19.077Z,9.14
2019-03-28T02:37:00.521Z,8.19
2019-03-28T02:39:49.354Z,8.37
2019-03-28T02:42:39.889Z,9.23
2019-03-28T02:45:29.917Z,9.29
2019-03-28T02:48:19.175Z,9.19
2019-03-28T02:51:07.988Z,7.82
2019-03-28T02:54:15.829Z,9.24
2019-03-28T02:57:04.684Z,9.14
2019-03-28T02:59:54.654Z,9.07
2019-03-28T03:02:44.082Z,9.03
2019-03-28T03:05:32.866Z,9.11
2019-03-28T03:08:21.675Z,9.18
2019-03-28T03:11:10.476Z,9.19
2019-03-28T03:13:59.281Z,9.26
2019-03-28T03:16:48.877Z,9.31
2019-03-28T03:19:38.611Z,9.29
2019-03-28T03:22:28.607Z,9.19
2019-03-28T03:25:18.274Z,9.27
2019-03-28T03:28:07.100Z,9.24
2019-03-28T03:30:55.929Z,8.40
2019-03-28T03:33:44.707Z,9.34
2019-03-28T03:36:26.613Z,9.34
2019-03-28T03:39:15.410Z,9.32
2019-03-28T03:42:04.225Z,9.24
2019-03-28T03:44:53.023Z,8.79
2019-03-28T03:47:41.893Z,9.31
2019-03-28T03:50:30.777Z,7.75
2019-03-28T03:53:19.668Z,7.64
2019-03-28T03:56:08.448Z,9.35
2019-03-28T04:01:51.609Z,7.68
2019-03-28T04:04:40.434Z,9.30
2019-03-28T04:07:29.228Z,8.15
2019-03-28T04:10:18.043Z,9.35
2019-03-28T04:13:06.861Z,9.34
2019-03-28T04:15:55.687Z,9.47
2019-03-28T04:18:44.471Z,9.55
2019-03-28T04:24:27.780Z,9.70
2019-03-28T04:27:16.598Z,9.66
2019-03-28T04:30:26.302Z,8.53
2019-03-28T04:33:15.119Z,9.53
2019-03-28T04:35:56.570Z,9.45
2019-03-28T04:38:45.385Z,9.27
2019-03-28T04:41:34.198Z,9.26
2019-03-28T04:47:17.543Z,9.52
2019-03-28T04:53:21.841Z,9.61
2019-03-28T04:56:10.990Z,9.69
2019-03-28T04:58:59.806Z,9.79
2019-03-28T05:02:01.031Z,9.88
2019-03-28T05:04:39.234Z,9.90
2019-03-28T05:07:28.055Z,9.95
2019-03-28T05:13:11.536Z,9.93
2019-03-28T05:16:00.401Z,9.93
2019-03-28T05:18:49.197Z,9.85
2019-03-28T05:21:38.020Z,9.97
2019-03-28T05:24:26.814Z,9.66
2019-03-28T05:27:16.727Z,9.38
2019-03-28T05:30:27.070Z,9.61
2019-03-28T05:33:15.914Z,9.50
2019-03-28T05:36:04.714Z,9.61
2019-03-28T05:38:46.387Z,9.81
2019-03-28T05:41:35.184Z,9.93
2019-03-28T05:44:23.997Z,10.01
2019-03-28T05:47:12.829Z,8.41
2019-03-28T05:50:01.656Z,10.14
2019-03-28T05:52:50.486Z,10.09
2019-03-28T05:55:39.353Z,8.80
2019-03-28T05:58:28.181Z,10.21
2019-03-28T06:01:17.056Z,10.12
2019-03-28T06:04:05.881Z,10.26
2019-03-28T06:06:54.701Z,10.16
2019-03-28T06:09:44.517Z,9.87
2019-03-28T06:12:34.056Z,10.18
2019-03-28T06:15:22.841Z,9.53
2019-03-28T06:18:30.691Z,9.50
2019-03-28T06:21:19.502Z,10.46
2019-03-28T06:24:08.323Z,10.54
2019-03-28T06:26:57.222Z,10.14
2019-03-28T06:29:46.018Z,10.60
2019-03-28T06:32:42.879Z,10.79
2019-03-28T06:35:25.368Z,10.69
2019-03-28T06:38:07.080Z,10.63
2019-03-28T06:40:55.912Z,10.60
2019-03-28T06:43:44.707Z,10.75
2019-03-28T06:46:33.522Z,10.91
2019-03-28T06:49:41.340Z,11.08
2019-03-28T06:52:30.164Z,11.20
2019-03-28T06:55:18.957Z,10.59
2019-03-28T06:58:07.776Z,11.31
2019-03-28T07:00:56.573Z,11.52
2019-03-28T07:03:47.376Z,11.66
2019-03-28T07:06:35.921Z,11.60
2019-03-28T07:09:24.750Z,11.58
2019-03-28T07:12:13.554Z,11.49
2019-03-28T07:15:02.680Z,11.49
2019-03-28T07:17:51.533Z,11.72
2019-03-28T07:20:40.344Z,11.84
2019-03-28T07:23:29.223Z,11.89
2019-03-28T07:26:18.026Z,12.01
2019-03-28T07:29:06.853Z,11.71
2019-03-28T07:31:55.655Z,11.20
2019-03-28T07:34:44.470Z,10.19
2019-03-28T07:37:28.019Z,11.71
2019-03-28T07:40:16.743Z,10.60
2019-03-28T07:43:05.643Z,11.90
2019-03-28T07:45:54.475Z,12.12
2019-03-28T07:49:02.316Z,12.41
2019-03-28T07:51:51.218Z,12.19
2019-03-28T07:54:40.064Z,12.79
2019-03-28T07:57:28.869Z,13.15
2019-03-28T08:00:17.751Z,13.48
2019-03-28T08:03:06.610Z,12.40
2019-03-28T08:05:55.383Z,13.82
2019-03-28T08:08:44.356Z,13.18
2019-03-28T08:11:34.911Z,14.06
2019-03-28T08:14:25.283Z,13.04
2019-03-28T08:17:14.166Z,14.24
2019-03-28T08:23:36.543Z,14.34
2019-03-28T08:26:25.710Z,14.44
2019-03-28T08:29:14.528Z,13.41
2019-03-28T08:34:59.312Z,15.11
2019-03-28T08:37:40.903Z,15.38
2019-03-28T08:40:49.067Z,15.59
2019-03-28T08:43:37.871Z,15.53
2019-03-28T08:46:26.704Z,15.81
2019-03-28T08:49:15.512Z,15.94
2019-03-28T08:52:04.343Z,16.04
2019-03-28T08:54:53.151Z,15.83
2019-03-28T08:57:41.971Z,16.24
2019-03-28T09:00:35.264Z,16.45
2019-03-28T09:03:21.650Z,16.58
2019-03-28T09:06:10.457Z,16.93
2019-03-28T09:08:59.274Z,16.33
2019-03-28T09:11:48.090Z,16.56
2019-03-28T09:14:37.077Z,15.54
2019-03-28T09:17:27.459Z,15.94
2019-03-28T09:20:16.353Z,16.46
2019-03-28T09:23:05.234Z,16.05
2019-03-28T09:25:54.064Z,15.68
2019-03-28T09:28:42.865Z,15.32
2019-03-28T09:31:31.731Z,15.16
2019-03-28T09:34:20.511Z,15.54
2019-03-28T09:37:02.050Z,16.03
2019-03-28T09:39:50.853Z,15.43
2019-03-28T09:42:39.678Z,15.79
2019-03-28T09:45:28.568Z,16.06
2019-03-28T09:48:17.373Z,16.01
2019-03-28T09:51:25.266Z,16.31
2019-03-28T09:54:14.040Z,16.92
2019-03-28T09:57:02.870Z,16.35
2019-03-28T09:59:51.672Z,16.70
2019-03-28T10:02:43.877Z,16.22
2019-03-28T10:05:31.086Z,15.87
2019-03-28T10:08:19.915Z,17.02
2019-03-28T10:11:08.829Z,16.02
2019-03-28T10:13:57.623Z,16.91
2019-03-28T10:16:46.524Z,17.06
2019-03-28T10:19:35.351Z,18.67
2019-03-28T10:22:24.179Z,18.39
2019-03-28T10:25:14.494Z,18.45
2019-03-28T10:28:03.768Z,18.14
2019-03-28T10:30:45.514Z,18.08
2019-03-28T10:33:34.313Z,16.82
2019-03-28T10:36:16.447Z,16.88
2019-03-28T10:39:26.175Z,15.85
2019-03-28T10:42:14.995Z,16.09
2019-03-28T10:48:19.475Z,16.20
2019-03-28T10:51:09.353Z,16.76
2019-03-28T10:53:58.176Z,17.42
2019-03-28T10:56:52.130Z,17.91
2019-03-28T10:59:37.514Z,16.87
2019-03-28T11:02:28.784Z,18.26
2019-03-28T11:05:16.929Z,18.66
2019-03-28T11:08:05.736Z,17.90
2019-03-28T11:10:54.576Z,18.46
2019-03-28T11:13:43.370Z,18.62
2019-03-28T11:16:32.216Z,18.51
2019-03-28T11:19:21.025Z,17.59
2019-03-28T11:22:16.819Z,16.69
2019-03-28T11:25:26.557Z,16.41
2019-03-28T11:28:15.832Z,17.80
2019-03-28T11:31:05.943Z,17.30
2019-03-28T11:33:54.720Z,17.58
2019-03-28T11:36:43.548Z,17.69
2019-03-28T11:39:24.899Z,17.74
2019-03-28T11:42:13.736Z,17.76
2019-03-28T11:45:02.615Z,18.00
2019-03-28T11:47:51.439Z,18.36
2019-03-28T11:50:40.299Z,18.18
2019-03-28T11:53:29.078Z,18.21
2019-03-28T11:56:17.880Z,18.20
2019-03-28T11:59:07.025Z,18.03
2019-03-28T12:02:02.101Z,17.93
2019-03-28T12:04:46.373Z,18.20
2019-03-28T12:07:35.178Z,18.51
2019-03-28T12:10:24.303Z,18.82
2019-03-28T12:13:13.089Z,19.25
2019-03-28T12:16:01.920Z,17.92
2019-03-28T12:18:50.745Z,19.08
2019-03-28T12:21:39.576Z,19.12
2019-03-28T12:24:47.420Z,19.01
2019-03-28T12:27:36.381Z,18.39
2019-03-28T12:30:25.185Z,18.59
2019-03-28T12:33:14.010Z,16.29
2019-03-28T12:36:02.823Z,16.54
2019-03-28T12:38:51.645Z,17.31
2019-03-28T12:41:40.462Z,17.47
2019-03-28T12:44:29.287Z,17.26
2019-03-28T12:47:18.098Z,16.19
2019-03-28T12:50:27.848Z,18.12
2019-03-28T12:53:16.651Z,16.49
2019-03-28T12:56:05.500Z,16.42
2019-03-28T12:58:54.293Z,17.76
2019-03-28T13:04:36.927Z,18.51
2019-03-28T13:07:25.774Z,18.82
2019-03-28T13:10:33.904Z,18.85
2019-03-28T13:13:22.720Z,18.83
2019-03-28T13:16:11.537Z,17.49
2019-03-28T13:19:00.361Z,18.37
2019-03-28T13:21:49.173Z,17.88
2019-03-28T13:24:38.060Z,18.45
2019-03-28T13:27:26.887Z,18.85
2019-03-28T13:30:15.955Z,19.22
2019-03-28T13:32:57.968Z,19.36
2019-03-28T13:35:46.807Z,19.33
2019-03-28T13:38:35.616Z,19.40
2019-03-28T13:41:24.444Z,19.51
2019-03-28T13:44:13.245Z,19.32
2019-03-28T13:47:02.064Z,19.06
2019-03-28T13:49:50.891Z,19.11
2019-03-28T13:52:40.052Z,19.00
2019-03-28T13:55:28.875Z,19.35
2019-03-28T13:58:17.706Z,19.79
2019-03-28T14:01:06.534Z,19.60
2019-03-28T14:03:55.353Z,19.88
2019-03-28T14:06:44.172Z,19.67
2019-03-28T14:09:32.972Z,19.95
2019-03-28T14:12:23.311Z,18.82
2019-03-28T14:15:12.492Z,18.92
2019-03-28T14:18:20.329Z,19.51
2019-03-28T14:24:16.904Z,19.47
2019-03-28T14:27:05.722Z,19.31
2019-03-28T14:29:54.524Z,18.95
2019-03-28T14:32:34.334Z,18.61
2019-03-28T14:35:23.139Z,18.12
2019-03-28T14:38:12.036Z,18.21
2019-03-28T14:41:00.936Z,16.35
2019-03-28T14:43:49.795Z,17.87
2019-03-28T14:46:38.640Z,17.86
2019-03-28T14:49:27.592Z,18.18
2019-03-28T14:52:16.459Z,18.12
2019-03-28T14:55:26.222Z,18.05
2019-03-28T14:58:15.283Z,17.81
2019-03-28T15:01:04.105Z,18.12
2019-03-28T15:03:53.154Z,18.10
2019-03-28T15:06:42.049Z,18.28
2019-03-28T15:09:31.224Z,18.02
2019-03-28T15:12:39.175Z,17.59
2019-03-28T15:15:28.056Z,17.76
2019-03-28T15:18:09.809Z,16.27
2019-03-28T15:20:58.706Z,17.89
2019-03-28T15:23:47.534Z,17.12
2019-03-28T15:26:36.540Z,15.64
2019-03-28T15:29:27.013Z,16.04
2019-03-28T15:32:34.948Z,16.57
2019-03-28T15:35:23.855Z,16.43
2019-03-28T15:38:13.664Z,16.53
2019-03-28T15:41:03.651Z,16.56
2019-03-28T15:44:11.590Z,16.79
2019-03-28T15:47:00.477Z,16.95
2019-03-28T15:49:49.361Z,17.22
2019-03-28T15:55:45.929Z,16.52
2019-03-28T15:58:34.781Z,15.19
2019-03-28T16:01:23.634Z,15.31
2019-03-28T16:04:12.454Z,16.26
2019-03-28T16:07:01.364Z,14.92
2019-03-28T16:09:50.207Z,16.46
2019-03-28T16:12:39.416Z,15.89
2019-03-28T16:15:28.404Z,15.14
2019-03-28T16:18:17.289Z,16.20
2019-03-28T16:20:59.224Z,16.11
2019-03-28T16:23:48.116Z,15.94
2019-03-28T16:26:36.895Z,15.92
2019-03-28T16:29:25.710Z,15.80
2019-03-28T16:32:16.204Z,15.87
2019-03-28T16:35:25.969Z,15.68
2019-03-28T16:38:14.776Z,15.70
2019-03-28T16:41:03.622Z,15.77
2019-03-28T16:43:52.446Z,15.67
2019-03-28T16:49:35.331Z,15.76
2019-03-28T16:52:24.163Z,15.79
2019-03-28T16:55:25.550Z,15.78
2019-03-28T16:58:03.536Z,15.61
2019-03-28T17:00:52.337Z,14.13
2019-03-28T17:03:41.166Z,14.90
2019-03-28T17:06:30.041Z,14.90
2019-03-28T17:09:18.863Z,14.02
2019-03-28T17:12:07.737Z,14.18
2019-03-28T17:14:56.587Z,15.33
2019-03-28T17:17:45.388Z,15.13
2019-03-28T17:20:27.005Z,15.25
2019-03-28T17:23:15.898Z,15.14
2019-03-28T17:26:04.764Z,15.05
2019-03-28T17:28:53.598Z,14.92
2019-03-28T17:31:42.468Z,14.81
2019-03-28T17:34:35.233Z,14.97
2019-03-28T17:37:21.787Z,14.79
2019-03-28T17:40:10.680Z,13.51
2019-03-28T17:43:18.593Z,14.67
2019-03-28T17:49:16.870Z,14.54
2019-03-28T17:52:05.675Z,13.53
2019-03-28T17:54:54.533Z,14.51
2019-03-28T17:58:02.469Z,14.41
2019-03-28T18:00:51.300Z,13.91
2019-03-28T18:03:40.091Z,14.27
2019-03-28T18:06:29.040Z,12.85
2019-03-28T18:09:17.872Z,12.93
2019-03-28T18:12:06.690Z,12.79
2019-03-28T18:14:55.513Z,13.94
2019-03-28T18:17:44.321Z,14.30
2019-03-28T18:20:25.615Z,14.28
2019-03-28T18:23:14.455Z,14.30
2019-03-28T18:26:03.277Z,13.88
2019-03-28T18:28:52.166Z,14.43
2019-03-28T18:31:50.397Z,14.43
2019-03-28T18:37:25.747Z,13.43
2019-03-28T18:40:14.644Z,14.14
2019-03-28T18:43:03.513Z,14.20
2019-03-28T18:45:52.424Z,14.21
2019-03-28T18:48:41.224Z,14.28
2019-03-28T18:51:30.255Z,14.36
2019-03-28T18:54:20.332Z,14.42
2019-03-28T18:57:09.586Z,14.24
2019-03-28T18:59:58.382Z,14.52
2019-03-28T19:02:47.211Z,13.86
2019-03-28T19:05:36.098Z,14.10
2019-03-28T19:08:43.940Z,14.49
2019-03-28T19:11:25.932Z,14.64
2019-03-28T19:13:55.427Z,14.73
2019-03-28T19:16:44.244Z,14.62
2019-03-28T19:19:39.225Z,14.52
2019-03-28T19:22:23.888Z,14.51
2019-03-28T19:25:14.394Z,14.14
2019-03-28T19:28:03.267Z,13.92
2019-03-28T19:30:52.078Z,13.00
2019-03-28T19:33:41.008Z,13.99
2019-03-28T19:36:31.504Z,14.12
2019-03-28T19:39:39.688Z,14.27
2019-03-28T19:42:28.564Z,14.28
2019-03-28T19:45:38.369Z,14.33
2019-03-28T19:48:27.397Z,13.25
2019-03-28T19:51:16.216Z,14.44
2019-03-28T19:54:05.136Z,14.37
2019-03-28T19:56:57.173Z,14.07
2019-03-28T19:59:44.485Z,13.34
2019-03-28T20:02:33.844Z,14.00
2019-03-28T20:05:24.155Z,14.05
2019-03-28T20:08:15.783Z,13.87
2019-03-28T20:13:55.846Z,13.12
2019-03-28T20:16:44.655Z,13.89
2019-03-28T20:19:33.470Z,14.00
2019-03-28T20:22:22.291Z,13.49
2019-03-28T20:25:11.246Z,13.92
2019-03-28T20:28:00.116Z,12.85
2019-03-28T20:30:48.939Z,13.99
2019-03-28T20:33:37.895Z,14.10
2019-03-28T20:36:37.504Z,14.25
2019-03-28T20:39:18.789Z,14.45
2019-03-28T20:42:08.803Z,14.63
2019-03-28T20:44:58.269Z,14.67
2019-03-28T20:47:47.104Z,14.71
2019-03-28T20:50:35.910Z,14.69
2019-03-28T20:53:24.811Z,14.19
2019-03-28T20:56:13.615Z,14.25
2019-03-28T20:59:02.434Z,14.05
2019-03-28T21:01:51.231Z,12.86
2019-03-28T21:04:40.119Z,14.14
2019-03-28T21:07:28.925Z,13.92
2019-03-28T21:10:37.073Z,14.08
2019-03-28T21:13:18.385Z,14.10
2019-03-28T21:21:56.143Z,14.09
2019-03-28T21:24:45.098Z,12.81
2019-03-28T21:27:33.913Z,14.15
2019-03-28T21:30:22.780Z,14.16
2019-03-28T21:33:14.732Z,13.26
2019-03-28T21:36:02.130Z,14.32
2019-03-28T21:38:50.939Z,14.33
2019-03-28T21:41:39.801Z,14.19
2019-03-28T21:44:28.614Z,14.19
2019-03-28T21:47:17.438Z,14.16
2019-03-28T21:50:27.677Z,14.30
2019-03-28T21:53:19.974Z,13.27
2019-03-28T21:59:17.683Z,14.33
2019-03-28T22:05:35.267Z,13.96
2019-03-28T22:08:24.080Z,14.22
2019-03-28T22:11:12.904Z,14.20
2019-03-28T22:13:54.244Z,14.21
2019-03-28T22:16:43.075Z,14.20
2019-03-28T22:19:31.883Z,14.16
2019-03-28T22:22:20.695Z,14.11
2019-03-28T22:28:38.178Z,13.89
2019-03-28T22:31:28.451Z,14.02
2019-03-28T22:34:17.289Z,14.06
2019-03-28T22:37:06.077Z,14.10
2019-03-28T22:39:54.908Z,14.11
2019-03-28T22:42:43.710Z,14.05
2019-03-28T22:45:32.548Z,14.07
2019-03-28T22:48:21.354Z,14.12
2019-03-28T22:51:10.252Z,14.11
2019-03-28T22:53:59.045Z,12.84
2019-03-28T22:56:47.874Z,14.14
2019-03-28T22:59:36.670Z,14.03
2019-03-28T23:08:14.019Z,14.17
2019-03-28T23:11:02.813Z,14.16
2019-03-28T23:13:44.683Z,13.83
2019-03-28T23:16:33.595Z,14.18
2019-03-28T23:19:22.461Z,13.65
2019-03-28T23:22:11.388Z,14.37
2019-03-28T23:25:00.356Z,14.42
2019-03-28T23:27:49.239Z,14.33
2019-03-28T23:30:38.106Z,14.40
2019-03-28T23:33:27.346Z,14.42
2019-03-28T23:36:16.239Z,14.40
2019-03-28T23:39:26.367Z,14.47
2019-03-28T23:42:17.759Z,14.52
2019-03-28T23:45:26.741Z,14.64
2019-03-28T23:48:15.591Z,14.67
2019-03-28T23:51:04.447Z,14.73
2019-03-28T23:53:53.463Z,14.80
2019-03-28T23:56:42.367Z,14.86
